Time;durP1;ratioP1;P1;durP2;ratioP2;P2;SDS_P1;SDS_P2;PMS_P1;PMS_P2;Temp;Humidity;BMP_temperature;BMP_pressure;BME280_temperature;BME280_humidity;BME280_pressure;Samples;Min_cycle;Max_cycle;Signal;HPM_P1;HPM_P2
2024/02/03 00:00:03;;;;;;;7.75;4.15;;;9.90;99.90;;;;;;4966796;28;20039;-66
2024/02/03 00:02:29;;;;;;;8.63;5.03;;;9.90;99.90;;;;;;4965759;28;20118;-66
2024/02/03 00:04:55;;;;;;;8.35;4.57;;;9.90;99.90;;;;;;4966375;28;20606;-66
2024/02/03 00:07:21;;;;;;;9.80;4.40;;;10.00;99.90;;;;;;4966680;28;20038;-66
2024/02/03 00:09:50;;;;;;;7.75;4.57;;;10.00;99.90;;;;;;4966501;28;20082;-66
2024/02/03 00:12:18;;;;;;;7.20;4.32;;;10.00;99.90;;;;;;4964941;28;20084;-66
2024/02/03 00:14:44;;;;;;;8.98;5.20;;;10.00;99.90;;;;;;4965232;28;20342;-66
2024/02/03 00:17:10;;;;;;;6.97;4.60;;;10.00;99.90;;;;;;4965844;28;20023;-66
2024/02/03 00:19:36;;;;;;;9.35;4.72;;;9.90;99.90;;;;;;4966468;28;20434;-66
2024/02/03 00:22:02;;;;;;;6.75;4.55;;;10.00;99.90;;;;;;4964765;28;20035;-66
2024/02/03 00:24:28;;;;;;;9.55;4.80;;;10.00;99.90;;;;;;4965797;28;20038;-66
2024/02/03 00:26:54;;;;;;;9.38;4.90;;;10.10;99.90;;;;;;4965729;28;20046;-66
2024/02/03 00:29:20;;;;;;;8.35;4.43;;;10.10;99.90;;;;;;4965625;28;20048;-67
2024/02/03 00:31:46;;;;;;;6.15;3.53;;;10.10;99.90;;;;;;4966124;28;20041;-66
2024/02/03 00:34:11;;;;;;;7.32;3.72;;;10.20;99.90;;;;;;4966217;28;20034;-66
2024/02/03 00:36:37;;;;;;;7.75;4.60;;;10.30;99.90;;;;;;4965782;28;20210;-66
2024/02/03 00:39:03;;;;;;;7.97;5.03;;;10.40;99.90;;;;;;4966051;28;20038;-68
2024/02/03 00:41:29;;;;;;;6.97;4.25;;;10.40;99.90;;;;;;4965902;28;20749;-66
2024/02/03 00:43:55;;;;;;;8.27;4.60;;;10.50;99.90;;;;;;4966392;28;20058;-66
2024/02/03 00:46:20;;;;;;;6.68;4.20;;;10.50;99.90;;;;;;4965862;28;20069;-66
2024/02/03 00:48:46;;;;;;;7.03;4.70;;;10.40;99.90;;;;;;4965850;28;20395;-66
2024/02/03 00:51:12;;;;;;;6.43;4.10;;;10.40;99.90;;;;;;4965741;28;20026;-66
2024/02/03 00:53:39;;;;;;;7.78;4.60;;;10.40;99.90;;;;;;4965437;28;20060;-66
2024/02/03 00:56:05;;;;;;;6.30;4.32;;;10.40;99.90;;;;;;4965965;28;20058;-66
2024/02/03 00:58:31;;;;;;;7.28;4.53;;;10.50;99.90;;;;;;4965685;28;20035;-66
2024/02/03 01:00:57;;;;;;;7.40;5.10;;;10.50;99.90;;;;;;4965758;28;20591;-66
2024/02/03 01:03:24;;;;;;;8.07;4.97;;;10.50;99.90;;;;;;4965737;28;20029;-66
2024/02/03 01:05:51;;;;;;;7.28;4.93;;;10.50;99.90;;;;;;4965350;28;20038;-66
2024/02/03 01:08:18;;;;;;;7.10;4.32;;;10.40;99.90;;;;;;4965280;28;20091;-66
2024/02/03 01:10:46;;;;;;;9.20;5.13;;;10.50;99.90;;;;;;4965683;28;20062;-66
2024/02/03 01:13:12;;;;;;;7.97;4.75;;;10.40;99.90;;;;;;4964240;28;20019;-66
2024/02/03 01:15:38;;;;;;;7.03;4.70;;;10.40;99.90;;;;;;4961561;28;20041;-66
2024/02/03 01:18:05;;;;;;;8.32;4.97;;;10.50;99.90;;;;;;4961279;28;20114;-66
2024/02/03 01:20:32;;;;;;;6.88;4.70;;;10.50;99.90;;;;;;4961557;28;20035;-66
2024/02/03 01:22:58;;;;;;;6.85;4.80;;;10.40;99.90;;;;;;4964596;28;20050;-66
2024/02/03 01:25:24;;;;;;;6.90;4.60;;;10.40;99.90;;;;;;4963731;28;20371;-66
2024/02/03 01:27:50;;;;;;;8.07;4.45;;;10.40;99.90;;;;;;4961578;28;20049;-66
2024/02/03 01:30:16;;;;;;;6.57;4.35;;;10.50;99.90;;;;;;4965217;28;20037;-67
2024/02/03 01:32:42;;;;;;;6.93;4.82;;;10.60;99.90;;;;;;4962265;28;20679;-67
2024/02/03 01:35:09;;;;;;;9.15;4.57;;;10.50;99.90;;;;;;4965007;28;20030;-67
2024/02/03 01:37:35;;;;;;;8.52;5.38;;;10.50;99.90;;;;;;4964908;28;20805;-67
2024/02/03 01:40:02;;;;;;;7.43;4.65;;;10.60;99.90;;;;;;4965254;28;20046;-66
2024/02/03 01:42:28;;;;;;;8.85;5.40;;;10.60;99.90;;;;;;4963945;28;20101;-67
2024/02/03 01:44:54;;;;;;;8.38;4.80;;;10.60;99.90;;;;;;4965402;28;20035;-66
2024/02/03 01:47:20;;;;;;;8.38;4.88;;;10.60;99.90;;;;;;4964988;28;20034;-66
2024/02/03 01:49:47;;;;;;;8.10;4.65;;;10.70;99.90;;;;;;4964442;28;20414;-66
2024/02/03 01:52:13;;;;;;;7.53;5.18;;;10.70;99.90;;;;;;4964402;28;20038;-66
2024/02/03 01:54:43;;;;;;;7.53;5.07;;;10.80;99.90;;;;;;4958154;28;20498;-66
2024/02/03 01:57:10;;;;;;;7.50;5.13;;;10.80;99.90;;;;;;4964171;28;20513;-66
2024/02/03 01:59:36;;;;;;;7.57;5.07;;;10.80;99.90;;;;;;4965343;28;20183;-67
2024/02/03 02:02:02;;;;;;;8.82;4.90;;;10.80;99.90;;;;;;4965192;28;20034;-67
2024/02/03 02:04:31;;;;;;;6.88;4.70;;;10.90;99.90;;;;;;4965166;28;20569;-67
2024/02/03 02:06:58;;;;;;;7.80;5.40;;;10.90;99.90;;;;;;4961987;28;20453;-66
2024/02/03 02:09:25;;;;;;;8.27;5.20;;;10.90;99.90;;;;;;4964995;28;20046;-66
2024/02/03 02:11:54;;;;;;;9.65;5.70;;;10.70;99.90;;;;;;4965220;28;20736;-67
2024/02/03 02:14:22;;;;;;;8.25;5.50;;;10.70;99.90;;;;;;4977018;28;20023;-66
2024/02/03 02:16:52;;;;;;;11.15;6.07;;;10.60;99.90;;;;;;4949551;28;20102;-67
2024/02/03 02:19:18;;;;;;;9.88;6.13;;;10.60;99.90;;;;;;4949135;28;20028;-66
2024/02/03 02:21:44;;;;;;;9.18;5.90;;;10.70;99.90;;;;;;4949038;28;20058;-67
2024/02/03 02:24:11;;;;;;;8.65;5.53;;;10.80;99.90;;;;;;4947906;28;20471;-66
2024/02/03 02:26:36;;;;;;;9.20;5.35;;;10.80;99.90;;;;;;4949973;28;20065;-66
2024/02/03 02:29:02;;;;;;;9.90;6.03;;;10.90;99.90;;;;;;4949061;28;20156;-66
2024/02/03 02:31:28;;;;;;;9.35;5.40;;;10.90;99.90;;;;;;4948934;28;20031;-66
2024/02/03 02:33:54;;;;;;;9.52;6.25;;;10.90;99.90;;;;;;4964847;28;20050;-66
2024/02/03 02:36:20;;;;;;;10.38;6.72;;;10.90;99.90;;;;;;4964796;28;20019;-66
2024/02/03 02:38:45;;;;;;;13.18;7.07;;;11.00;99.90;;;;;;4964470;28;20411;-66
2024/02/03 02:41:11;;;;;;;11.80;6.47;;;10.90;99.90;;;;;;4964593;28;20031;-66
2024/02/03 02:43:37;;;;;;;11.38;6.13;;;10.90;99.90;;;;;;4964323;28;20035;-66
2024/02/03 02:46:04;;;;;;;10.10;6.47;;;11.00;99.90;;;;;;4964373;28;20023;-66
2024/02/03 02:48:30;;;;;;;11.32;6.72;;;11.00;99.90;;;;;;4979399;28;20411;-66
2024/02/03 02:50:56;;;;;;;10.73;6.25;;;11.10;99.90;;;;;;4952453;28;20035;-66
2024/02/03 02:53:22;;;;;;;7.13;5.25;;;11.10;99.90;;;;;;4952778;28;20039;-66
2024/02/03 02:55:48;;;;;;;9.10;6.40;;;11.10;99.90;;;;;;4952782;28;20038;-67
2024/02/03 02:58:13;;;;;;;11.18;5.68;;;11.10;99.90;;;;;;4952392;28;20067;-66
2024/02/03 03:00:39;;;;;;;7.85;5.68;;;11.10;99.90;;;;;;4952680;28;20042;-66
2024/02/03 03:03:05;;;;;;;10.13;5.82;;;11.20;99.90;;;;;;4960671;28;20038;-67
2024/02/03 03:05:31;;;;;;;8.73;6.05;;;11.20;99.90;;;;;;4967696;28;20031;-66
2024/02/03 03:07:56;;;;;;;9.45;6.05;;;11.20;99.90;;;;;;4966138;28;20050;-67
2024/02/03 03:10:22;;;;;;;8.18;5.30;;;11.30;99.90;;;;;;4967875;28;20404;-67
2024/02/03 03:12:48;;;;;;;9.55;6.45;;;11.30;99.90;;;;;;4967623;28;21525;-66
2024/02/03 03:15:14;;;;;;;10.18;5.68;;;11.30;99.90;;;;;;4967727;28;20533;-67
2024/02/03 03:17:40;;;;;;;9.50;5.75;;;11.30;99.90;;;;;;4967511;28;20057;-67
2024/02/03 03:20:07;;;;;;;10.98;6.18;;;11.30;99.90;;;;;;4966983;28;20549;-67
2024/02/03 03:22:33;;;;;;;9.93;5.97;;;11.40;99.90;;;;;;4967705;28;20030;-66
2024/02/03 03:24:59;;;;;;;10.82;5.93;;;11.40;99.90;;;;;;4967392;28;20116;-66
2024/02/03 03:27:24;;;;;;;11.25;5.93;;;11.30;99.90;;;;;;4966243;28;20046;-66
2024/02/03 03:29:51;;;;;;;7.90;5.93;;;11.40;99.90;;;;;;4964412;28;20041;-66
2024/02/03 03:32:17;;;;;;;8.88;6.25;;;11.40;99.90;;;;;;4964672;28;20114;-66
2024/02/03 03:34:42;;;;;;;9.35;6.00;;;11.40;99.90;;;;;;4967314;28;20110;-67
2024/02/03 03:37:08;;;;;;;9.73;6.38;;;11.40;99.90;;;;;;4967091;28;20034;-67
2024/02/03 03:39:34;;;;;;;11.63;6.28;;;11.40;99.90;;;;;;4967074;28;20097;-66
2024/02/03 03:42:00;;;;;;;12.35;7.15;;;11.40;99.90;;;;;;4967166;28;20089;-66
2024/02/03 03:44:26;;;;;;;11.18;6.20;;;11.30;99.90;;;;;;4966759;28;20046;-66
2024/02/03 03:46:51;;;;;;;11.45;6.30;;;11.30;99.90;;;;;;4966967;28;20034;-66
2024/02/03 03:49:18;;;;;;;10.13;6.03;;;11.20;99.90;;;;;;4966479;28;20045;-66
2024/02/03 03:51:45;;;;;;;10.10;6.00;;;11.30;99.90;;;;;;4965228;28;20121;-66
2024/02/03 03:54:11;;;;;;;12.45;7.20;;;11.30;99.90;;;;;;4967143;28;20450;-66
2024/02/03 03:56:37;;;;;;;11.70;6.22;;;11.30;99.90;;;;;;4967040;28;20031;-67
2024/02/03 03:59:03;;;;;;;13.05;7.28;;;11.40;99.90;;;;;;4966704;28;20113;-66
2024/02/03 04:01:29;;;;;;;11.40;6.43;;;11.30;99.90;;;;;;4966991;28;20031;-66
2024/02/03 04:03:54;;;;;;;10.55;6.53;;;11.30;99.90;;;;;;4965661;28;20723;-67
2024/02/03 04:06:20;;;;;;;9.10;6.38;;;11.30;99.90;;;;;;4965426;28;20864;-66
2024/02/03 04:08:46;;;;;;;12.15;7.38;;;11.30;99.90;;;;;;4965259;28;20552;-71
2024/02/03 04:11:11;;;;;;;11.63;6.00;;;11.30;99.90;;;;;;4966983;28;20724;-71
2024/02/03 04:13:40;;;;;;;10.80;6.47;;;11.40;99.90;;;;;;4966968;28;20033;-70
2024/02/03 04:16:06;;;;;;;10.88;6.68;;;11.40;99.90;;;;;;4967290;28;20684;-70
2024/02/03 04:18:32;;;;;;;10.50;6.32;;;11.40;99.90;;;;;;4966813;28;20026;-71
2024/02/03 04:20:58;;;;;;;12.30;6.70;;;11.30;99.90;;;;;;4967513;28;20110;-71
2024/02/03 04:23:23;;;;;;;10.70;6.70;;;11.30;99.90;;;;;;4966950;28;20809;-70
2024/02/03 04:25:49;;;;;;;10.98;6.60;;;11.30;99.90;;;;;;4966905;28;20030;-71
2024/02/03 04:28:15;;;;;;;11.35;7.18;;;11.30;99.90;;;;;;4966292;28;20031;-70
2024/02/03 04:30:42;;;;;;;12.60;6.32;;;11.20;99.90;;;;;;4966468;28;20379;-71
2024/02/03 04:33:08;;;;;;;12.95;7.07;;;11.20;99.90;;;;;;4965232;28;20042;-70
2024/02/03 04:35:34;;;;;;;14.90;7.68;;;11.30;99.90;;;;;;4966970;28;20356;-70
2024/02/03 04:38:02;;;;;;;13.32;6.63;;;11.30;99.90;;;;;;4966439;28;20043;-71
2024/02/03 04:40:29;;;;;;;11.40;6.47;;;11.30;99.90;;;;;;4966735;28;20038;-70
2024/02/03 04:42:55;;;;;;;12.25;7.10;;;11.30;99.90;;;;;;4964586;28;20026;-70
2024/02/03 04:45:20;;;;;;;13.98;6.82;;;11.40;99.90;;;;;;4966386;28;20047;-71
2024/02/03 04:47:47;;;;;;;12.90;7.45;;;11.40;99.90;;;;;;4966168;28;20026;-70
2024/02/03 04:50:13;;;;;;;9.85;6.78;;;11.40;99.90;;;;;;4961174;28;20817;-71
2024/02/03 04:52:39;;;;;;;10.75;6.35;;;11.40;99.90;;;;;;4965437;28;20027;-71
2024/02/03 04:55:05;;;;;;;10.55;6.78;;;11.50;99.90;;;;;;4963710;28;20935;-71
2024/02/03 04:57:31;;;;;;;13.05;7.35;;;11.50;99.90;;;;;;4966236;28;20907;-71
2024/02/03 04:59:57;;;;;;;11.85;7.57;;;11.60;99.90;;;;;;4963961;28;20038;-70
2024/02/03 05:02:23;;;;;;;10.02;6.05;;;11.60;99.90;;;;;;4966959;28;20030;-71
2024/02/03 05:04:48;;;;;;;10.35;6.68;;;11.60;99.90;;;;;;4964129;28;21611;-70
2024/02/03 05:07:14;;;;;;;10.50;6.25;;;11.60;99.90;;;;;;4964136;28;20117;-71
2024/02/03 05:09:40;;;;;;;8.82;5.55;;;11.60;99.90;;;;;;4965884;28;20681;-71
2024/02/03 05:12:06;;;;;;;9.82;6.30;;;11.60;99.90;;;;;;4965593;28;20081;-71
2024/02/03 05:14:32;;;;;;;10.18;5.47;;;11.70;99.90;;;;;;4965763;28;20693;-71
2024/02/03 05:16:59;;;;;;;13.50;7.38;;;11.70;99.90;;;;;;4962174;28;20030;-71
2024/02/03 05:19:26;;;;;;;10.50;6.13;;;11.70;99.90;;;;;;4965204;28;20031;-70
2024/02/03 05:21:52;;;;;;;10.02;6.13;;;11.70;99.90;;;;;;4963246;28;20046;-70
2024/02/03 05:24:18;;;;;;;11.93;6.80;;;11.80;99.90;;;;;;4966232;28;20034;-71
2024/02/03 05:26:43;;;;;;;11.10;6.15;;;11.80;99.90;;;;;;4965785;28;20789;-70
2024/02/03 05:29:09;;;;;;;9.48;6.25;;;11.60;99.90;;;;;;4964117;28;20030;-69
2024/02/03 05:31:35;;;;;;;13.13;7.22;;;11.60;99.90;;;;;;4964586;28;20589;-71
2024/02/03 05:34:01;;;;;;;12.20;6.82;;;11.50;99.90;;;;;;4965578;28;20509;-70
2024/02/03 05:36:26;;;;;;;10.02;5.95;;;11.60;99.90;;;;;;4964398;28;20026;-69
2024/02/03 05:38:52;;;;;;;11.02;5.78;;;11.50;99.90;;;;;;4963964;28;20414;-71
2024/02/03 05:41:18;;;;;;;16.38;6.53;;;11.50;99.90;;;;;;4964065;28;20093;-70
2024/02/03 05:43:44;;;;;;;11.00;6.03;;;11.60;99.90;;;;;;4966125;28;20031;-71
2024/02/03 05:46:09;;;;;;;11.13;6.22;;;11.60;99.90;;;;;;4965687;28;20450;-71
2024/02/03 05:48:35;;;;;;;8.88;6.00;;;11.60;99.90;;;;;;4965872;28;20092;-71
2024/02/03 05:51:01;;;;;;;11.68;7.43;;;11.50;99.90;;;;;;4965784;28;20046;-70
2024/02/03 05:53:27;;;;;;;14.40;6.10;;;11.50;99.90;;;;;;4962871;28;20034;-70
2024/02/03 05:55:52;;;;;;;10.38;5.80;;;11.40;99.90;;;;;;4965851;28;20031;-70
2024/02/03 05:58:18;;;;;;;10.57;6.28;;;11.50;99.90;;;;;;4964663;28;20030;-70
2024/02/03 06:00:44;;;;;;;10.10;6.18;;;11.50;99.90;;;;;;4964813;28;20035;-69
2024/02/03 06:03:10;;;;;;;9.40;5.60;;;11.40;99.90;;;;;;4965540;28;20086;-69
2024/02/03 06:05:35;;;;;;;10.23;5.68;;;11.40;99.90;;;;;;4964672;28;20043;-70
2024/02/03 06:08:01;;;;;;;9.75;6.50;;;11.40;99.90;;;;;;4965153;28;20113;-70
2024/02/03 06:10:27;;;;;;;12.75;7.13;;;11.50;99.90;;;;;;4978614;28;20031;-70
2024/02/03 06:12:53;;;;;;;11.00;5.88;;;11.30;99.90;;;;;;4979560;28;20059;-70
2024/02/03 06:15:18;;;;;;;9.50;5.65;;;11.30;99.90;;;;;;4963751;28;20035;-70
2024/02/03 06:17:44;;;;;;;11.77;6.60;;;11.10;99.90;;;;;;4965108;28;20034;-69
2024/02/03 06:20:10;;;;;;;11.75;5.60;;;11.00;99.90;;;;;;4960569;28;20118;-70
2024/02/03 06:22:36;;;;;;;11.13;7.22;;;11.00;99.90;;;;;;4965495;28;20133;-69
2024/02/03 06:25:02;;;;;;;9.48;5.82;;;11.10;99.90;;;;;;4969238;28;20038;-70
2024/02/03 06:27:28;;;;;;;19.40;7.28;;;11.20;99.90;;;;;;4965942;28;20413;-71
2024/02/03 06:29:53;;;;;;;11.93;6.85;;;11.20;99.90;;;;;;4968828;28;20042;-70
2024/02/03 06:32:19;;;;;;;11.35;6.38;;;11.30;99.90;;;;;;4969064;28;20037;-69
2024/02/03 06:34:45;;;;;;;15.95;8.07;;;11.30;99.90;;;;;;4969229;28;20123;-69
2024/02/03 06:37:11;;;;;;;12.75;6.40;;;11.40;99.90;;;;;;4968267;28;20050;-70
2024/02/03 06:39:36;;;;;;;9.38;6.32;;;11.30;99.90;;;;;;4967304;28;20030;-70
2024/02/03 06:42:03;;;;;;;17.08;7.55;;;11.40;99.90;;;;;;4968495;28;20469;-70
2024/02/03 06:44:29;;;;;;;15.43;8.20;;;11.40;99.90;;;;;;4961832;28;20039;-69
2024/02/03 06:46:55;;;;;;;10.48;6.30;;;11.50;99.90;;;;;;4962275;28;20037;-70
2024/02/03 06:49:20;;;;;;;9.90;6.30;;;11.50;99.90;;;;;;4961236;28;20525;-70
2024/02/03 06:51:46;;;;;;;12.52;6.65;;;11.40;99.90;;;;;;4967934;28;20062;-69
2024/02/03 06:54:13;;;;;;;11.15;6.82;;;11.40;99.90;;;;;;4968147;28;20762;-69
2024/02/03 06:56:39;;;;;;;12.40;7.68;;;11.40;99.90;;;;;;4968261;28;20026;-70
2024/02/03 06:59:05;;;;;;;10.73;5.82;;;11.50;99.90;;;;;;4948190;28;20529;-71
2024/02/03 07:01:30;;;;;;;15.80;6.72;;;11.40;99.90;;;;;;4965851;28;20153;-71
2024/02/03 07:03:56;;;;;;;16.95;8.20;;;11.20;99.90;;;;;;4967689;28;20376;-70
2024/02/03 07:06:22;;;;;;;16.80;8.13;;;11.10;99.90;;;;;;4966693;28;20049;-70
2024/02/03 07:08:47;;;;;;;11.48;5.93;;;10.90;99.90;;;;;;4966850;28;20087;-70
2024/02/03 07:11:13;;;;;;;10.43;6.18;;;10.90;99.90;;;;;;4967638;28;20174;-71
2024/02/03 07:13:41;;;;;;;12.30;6.97;;;11.00;99.90;;;;;;4965546;28;20079;-73
2024/02/03 07:16:08;;;;;;;10.52;6.03;;;10.90;99.90;;;;;;4966091;28;20034;-70
2024/02/03 07:18:33;;;;;;;12.32;6.68;;;10.90;99.90;;;;;;4967369;28;20307;-70
2024/02/03 07:21:00;;;;;;;10.48;5.88;;;10.90;99.90;;;;;;4965495;28;20053;-70
2024/02/03 07:23:25;;;;;;;14.63;6.32;;;10.90;99.90;;;;;;4967522;28;20035;-71
2024/02/03 07:25:51;;;;;;;12.65;5.97;;;11.00;99.90;;;;;;4967593;28;20081;-69
2024/02/03 07:28:17;;;;;;;10.07;5.72;;;11.00;99.90;;;;;;4967390;28;20035;-71
2024/02/03 07:30:43;;;;;;;9.90;6.05;;;11.00;99.90;;;;;;4967459;28;20045;-71
2024/02/03 07:33:09;;;;;;;9.27;5.80;;;11.00;99.90;;;;;;4966264;28;20035;-71
2024/02/03 07:35:35;;;;;;;11.20;6.95;;;11.00;99.90;;;;;;4967306;28;20030;-70
2024/02/03 07:38:02;;;;;;;10.90;5.68;;;10.80;99.90;;;;;;4963347;28;20031;-70
2024/02/03 07:40:27;;;;;;;8.50;5.43;;;10.80;99.90;;;;;;4953013;28;20426;-71
2024/02/03 07:42:53;;;;;;;9.68;5.15;;;10.80;99.90;;;;;;4956479;28;20027;-70
2024/02/03 07:45:19;;;;;;;8.65;5.28;;;10.80;99.90;;;;;;4949749;28;20058;-66
2024/02/03 07:47:45;;;;;;;7.18;4.38;;;10.80;99.90;;;;;;4949994;28;20090;-67
2024/02/03 07:50:11;;;;;;;9.00;5.30;;;10.80;99.90;;;;;;4950730;28;20038;-71
2024/02/03 07:52:37;;;;;;;9.07;5.35;;;10.90;99.90;;;;;;4954538;28;20095;-71
2024/02/03 07:55:04;;;;;;;8.18;4.95;;;10.90;99.90;;;;;;4953279;28;20030;-71
2024/02/03 07:57:30;;;;;;;8.85;5.20;;;11.00;99.90;;;;;;4952538;28;20037;-73
2024/02/03 07:59:55;;;;;;;9.20;4.80;;;11.00;99.90;;;;;;4950583;28;20027;-71
2024/02/03 08:02:21;;;;;;;10.57;4.75;;;11.00;99.90;;;;;;4947990;28;20069;-71
2024/02/03 08:04:47;;;;;;;8.25;5.35;;;11.10;99.90;;;;;;4965797;28;20783;-72
2024/02/03 08:07:12;;;;;;;9.05;5.15;;;11.00;99.90;;;;;;4966889;28;20101;-71
2024/02/03 08:09:38;;;;;;;8.25;4.25;;;10.90;99.90;;;;;;4967305;28;20030;-70
2024/02/03 08:12:05;;;;;;;7.95;4.53;;;10.80;99.90;;;;;;4965864;28;20450;-71
2024/02/03 08:14:31;;;;;;;8.38;5.03;;;10.80;99.90;;;;;;4965235;28;20509;-70
2024/02/03 08:16:57;;;;;;;8.88;5.20;;;10.80;99.90;;;;;;4964718;28;20030;-71
2024/02/03 08:19:23;;;;;;;7.22;4.20;;;10.90;99.90;;;;;;4966189;28;20038;-72
2024/02/03 08:21:49;;;;;;;8.27;4.70;;;10.80;99.90;;;;;;4965318;28;20483;-70
2024/02/03 08:24:15;;;;;;;8.00;4.57;;;10.90;99.90;;;;;;4966612;28;20097;-70
2024/02/03 08:26:40;;;;;;;9.63;4.15;;;10.90;99.90;;;;;;4966315;28;20034;-71
2024/02/03 08:29:06;;;;;;;7.35;4.18;;;10.80;99.90;;;;;;4966609;28;20038;-71
2024/02/03 08:31:32;;;;;;;7.72;4.22;;;10.80;99.90;;;;;;4965982;28;20457;-67
2024/02/03 08:33:58;;;;;;;8.32;4.60;;;10.80;99.90;;;;;;4965496;28;20780;-67
2024/02/03 08:36:24;;;;;;;8.18;4.93;;;10.80;99.90;;;;;;4966307;28;20030;-68
2024/02/03 08:38:49;;;;;;;6.20;4.18;;;10.90;99.90;;;;;;4964944;28;20513;-67
2024/02/03 08:41:15;;;;;;;11.13;5.97;;;11.00;99.90;;;;;;4965680;28;20546;-67
2024/02/03 08:43:41;;;;;;;8.25;4.53;;;11.10;99.90;;;;;;4966144;28;20581;-70
2024/02/03 08:46:08;;;;;;;7.13;4.38;;;11.00;99.90;;;;;;4965812;28;20114;-73
2024/02/03 08:48:34;;;;;;;13.57;8.25;;;11.00;99.90;;;;;;4965984;28;20050;-72
2024/02/03 08:51:00;;;;;;;7.13;5.03;;;11.00;99.90;;;;;;4965348;28;20042;-71
2024/02/03 08:53:25;;;;;;;7.68;5.07;;;11.00;99.90;;;;;;4964324;28;20027;-73
2024/02/03 08:55:51;;;;;;;7.90;4.45;;;11.10;99.90;;;;;;4965270;28;20525;-73
2024/02/03 08:58:17;;;;;;;5.97;4.03;;;11.10;99.90;;;;;;4959065;28;20777;-73
2024/02/03 09:00:43;;;;;;;7.68;4.55;;;11.20;99.90;;;;;;4948122;28;20034;-73
2024/02/03 09:03:09;;;;;;;8.68;6.10;;;11.20;99.90;;;;;;4962733;28;20023;-71
2024/02/03 09:05:34;;;;;;;6.95;4.00;;;11.00;99.90;;;;;;4963243;28;20041;-72
2024/02/03 09:08:00;;;;;;;6.57;4.40;;;11.10;99.90;;;;;;4965657;28;20031;-72
2024/02/03 09:10:26;;;;;;;7.90;4.50;;;11.10;99.90;;;;;;4986326;22;20041;-72
2024/02/03 09:12:52;;;;;;;6.07;3.58;;;11.20;99.90;;;;;;4970271;28;20038;-72
2024/02/03 09:15:18;;;;;;;4.75;3.50;;;11.20;99.90;;;;;;4972120;28;20034;-72
2024/02/03 09:17:44;;;;;;;5.13;3.75;;;11.20;99.90;;;;;;4985062;28;20030;-73
2024/02/03 09:20:10;;;;;;;7.38;4.60;;;11.30;99.90;;;;;;4986090;28;20026;-72
2024/02/03 09:22:36;;;;;;;6.43;3.83;;;11.30;99.90;;;;;;4974597;28;20101;-73
2024/02/03 09:25:01;;;;;;;4.47;2.95;;;11.30;99.90;;;;;;4981703;28;20485;-72
2024/02/03 09:27:27;;;;;;;5.38;3.55;;;11.30;99.90;;;;;;4981262;28;20082;-72
2024/02/03 09:29:53;;;;;;;5.78;3.38;;;11.30;99.90;;;;;;4970590;28;20124;-72
2024/02/03 09:32:19;;;;;;;4.30;2.78;;;11.30;99.90;;;;;;4978530;28;20037;-72
2024/02/03 09:34:48;;;;;;;3.72;2.90;;;11.40;99.90;;;;;;4977029;28;20040;-73
2024/02/03 09:37:14;;;;;;;4.28;3.15;;;11.30;99.90;;;;;;4976881;28;20109;-72
2024/02/03 09:39:43;;;;;;;5.38;2.95;;;11.20;99.90;;;;;;4976221;28;20520;-70
2024/02/03 09:42:10;;;;;;;5.95;3.55;;;11.30;99.90;;;;;;4976001;28;20034;-70
2024/02/03 09:44:36;;;;;;;4.65;3.15;;;11.40;99.90;;;;;;4976672;28;20030;-70
2024/02/03 09:47:04;;;;;;;3.28;2.42;;;11.40;99.90;;;;;;4977146;28;20043;-70
2024/02/03 09:49:30;;;;;;;4.38;2.88;;;11.40;99.90;;;;;;4977243;28;20649;-71
2024/02/03 09:51:57;;;;;;;3.95;2.58;;;11.40;99.90;;;;;;4974909;28;20137;-70
2024/02/03 09:54:24;;;;;;;4.90;2.65;;;11.40;99.90;;;;;;4979895;28;20027;-70
2024/02/03 09:56:50;;;;;;;4.28;2.95;;;11.40;99.90;;;;;;4984094;28;20137;-68
2024/02/03 09:59:16;;;;;;;4.35;2.90;;;11.40;99.90;;;;;;4987610;28;20040;-69
2024/02/03 10:01:46;;;;;;;4.18;2.92;;;11.30;99.90;;;;;;4988076;28;20104;-70
2024/02/03 10:04:15;;;;;;;7.50;3.75;;;11.20;99.90;;;;;;4987753;28;20033;-69
2024/02/03 10:06:44;;;;;;;6.38;3.13;;;11.30;99.90;;;;;;4988179;28;20034;-69
2024/02/03 10:09:11;;;;;;;4.35;2.80;;;11.40;99.90;;;;;;4988078;28;20074;-70
2024/02/03 10:11:40;;;;;;;4.35;2.90;;;11.50;99.90;;;;;;4968889;28;20520;-71
2024/02/03 10:14:06;;;;;;;4.28;2.90;;;11.40;99.90;;;;;;4989945;28;20042;-72
2024/02/03 10:16:43;;;;;;;4.95;2.95;;;11.40;99.90;;;;;;4988484;28;20023;-73
2024/02/03 10:19:08;;;;;;;3.95;2.55;;;11.40;99.90;;;;;;4983400;28;20046;-78
2024/02/03 10:21:34;;;;;;;3.90;3.00;;;11.60;99.90;;;;;;4984793;28;20030;-77
2024/02/03 10:24:00;;;;;;;4.25;2.83;;;11.60;99.90;;;;;;4986002;28;20030;-78
2024/02/03 10:26:26;;;;;;;3.85;2.70;;;11.60;99.90;;;;;;4985983;28;20062;-77
2024/02/03 10:28:51;;;;;;;3.55;2.63;;;11.60;99.90;;;;;;4987605;28;20033;-78
2024/02/03 10:31:17;;;;;;;6.10;2.92;;;11.70;99.90;;;;;;4989353;28;20033;-77
2024/02/03 10:33:45;;;;;;;4.80;3.42;;;11.80;99.90;;;;;;4988254;28;20552;-76
2024/02/03 10:36:11;;;;;;;4.65;3.33;;;11.80;99.90;;;;;;4986944;28;20026;-77
2024/02/03 10:38:41;;;;;;;4.00;2.92;;;11.70;99.90;;;;;;4987303;28;20035;-77
2024/02/03 10:41:10;;;;;;;3.70;2.60;;;11.80;99.90;;;;;;4986250;28;20057;-77
2024/02/03 10:43:37;;;;;;;9.75;3.70;;;12.00;99.90;;;;;;4954597;28;20051;-77
2024/02/03 10:46:07;;;;;;;5.63;3.22;;;12.10;99.90;;;;;;4983001;28;20038;-75
2024/02/03 10:48:35;;;;;;;4.22;3.05;;;12.20;99.90;;;;;;4984660;28;20066;-71
2024/02/03 10:51:15;;;;;;;3.70;2.42;;;12.20;99.90;;;;;;4986477;28;20145;-70
2024/02/03 10:53:48;;;;;;;4.50;2.97;;;12.30;99.90;;;;;;4987851;28;20034;-70
2024/02/03 10:56:16;;;;;;;5.50;3.35;;;12.20;99.90;;;;;;4987060;28;20783;-70
2024/02/03 10:58:42;;;;;;;4.80;3.22;;;12.10;99.90;;;;;;4983367;28;20081;-70
2024/02/03 11:01:20;;;;;;;3.85;2.75;;;12.20;99.90;;;;;;4983386;28;20523;-71
2024/02/03 11:03:51;;;;;;;4.40;3.28;;;12.20;99.90;;;;;;4985304;28;20852;-70
2024/02/03 11:06:28;;;;;;;4.43;2.90;;;12.20;99.90;;;;;;4995614;28;20041;-70
2024/02/03 11:09:16;;;;;;;3.72;2.78;;;12.20;99.90;;;;;;4980962;28;20057;-71
2024/02/03 11:11:49;;;;;;;4.20;3.13;;;12.30;99.90;;;;;;4986915;28;20045;-71
2024/02/03 11:14:17;;;;;;;3.70;2.67;;;12.40;99.90;;;;;;4986947;28;20580;-70
2024/02/03 11:16:44;;;;;;;3.58;2.85;;;12.60;99.90;;;;;;5000180;23;20026;-71
2024/02/03 11:19:12;;;;;;;3.83;3.38;;;12.80;99.90;;;;;;4981128;28;20046;-71
2024/02/03 11:21:44;;;;;;;3.67;2.58;;;12.80;99.90;;;;;;4977623;28;20042;-71
2024/02/03 11:24:10;;;;;;;6.65;3.95;;;12.60;99.90;;;;;;4969834;28;20062;-71
2024/02/03 11:26:37;;;;;;;3.75;2.85;;;12.70;99.90;;;;;;4980783;28;20026;-70
2024/02/03 11:29:03;;;;;;;3.90;2.83;;;12.60;99.90;;;;;;4980003;28;20038;-68
2024/02/03 11:31:30;;;;;;;3.72;2.63;;;12.60;99.90;;;;;;4981992;28;20105;-70
2024/02/03 11:33:57;;;;;;;3.30;2.60;;;12.60;99.90;;;;;;4979445;28;20034;-70
2024/02/03 11:36:24;;;;;;;4.20;2.90;;;12.70;99.90;;;;;;4981268;28;20022;-70
2024/02/03 11:38:50;;;;;;;3.10;2.55;;;12.60;99.90;;;;;;4981481;28;20041;-70
2024/02/03 11:41:16;;;;;;;3.95;2.65;;;12.60;99.90;;;;;;4975069;28;20037;-70
2024/02/03 11:43:43;;;;;;;5.07;2.70;;;12.60;99.90;;;;;;4980903;28;20032;-71
2024/02/03 11:46:10;;;;;;;3.85;2.53;;;12.50;99.90;;;;;;4979781;28;20113;-71
2024/02/03 11:48:37;;;;;;;3.42;2.78;;;12.50;99.90;;;;;;4980536;28;20034;-70
2024/02/03 11:51:09;;;;;;;2.67;2.38;;;12.70;99.90;;;;;;4981444;28;20117;-70
2024/02/03 11:53:35;;;;;;;3.53;2.50;;;12.80;99.90;;;;;;4976220;28;20512;-69
2024/02/03 11:56:01;;;;;;;3.00;2.63;;;12.60;99.90;;;;;;4979460;28;20042;-76
2024/02/03 11:58:26;;;;;;;3.95;2.65;;;12.60;99.90;;;;;;4979288;28;20160;-75
2024/02/03 12:01:09;;;;;;;3.35;2.60;;;12.60;99.90;;;;;;4979563;28;20031;-76
2024/02/03 12:03:38;;;;;;;3.60;2.80;;;12.60;99.90;;;;;;4981371;28;20093;-76
2024/02/03 12:06:05;;;;;;;2.90;2.47;;;12.60;99.90;;;;;;4979746;28;20533;-77
2024/02/03 12:08:32;;;;;;;4.70;2.47;;;12.70;99.90;;;;;;4977703;28;20780;-72
2024/02/03 12:10:58;;;;;;;3.30;2.50;;;12.60;99.90;;;;;;4980072;28;20463;-69
2024/02/03 12:13:24;;;;;;;4.25;2.80;;;12.70;99.90;;;;;;4981317;28;20026;-69
2024/02/03 12:15:52;;;;;;;3.47;2.70;;;12.80;99.90;;;;;;4980375;28;20022;-69
2024/02/03 12:18:19;;;;;;;3.25;2.55;;;12.90;99.90;;;;;;4978346;28;20030;-70
2024/02/03 12:20:44;;;;;;;2.63;2.42;;;12.70;99.90;;;;;;4979670;28;20026;-70
2024/02/03 12:23:11;;;;;;;3.25;2.30;;;12.70;99.90;;;;;;4981282;28;20046;-70
2024/02/03 12:25:37;;;;;;;3.45;2.53;;;12.80;99.90;;;;;;4977549;28;20126;-70
2024/02/03 12:28:04;;;;;;;3.28;2.35;;;12.80;99.90;;;;;;4979583;28;20034;-69
2024/02/03 12:30:35;;;;;;;4.72;3.60;;;12.40;99.90;;;;;;4981858;28;20096;-72
2024/02/03 12:33:02;;;;;;;4.05;3.25;;;12.20;99.90;;;;;;4981715;28;20038;-72
2024/02/03 12:35:28;;;;;;;4.78;2.90;;;12.20;99.90;;;;;;4980829;28;20815;-68
2024/02/03 12:37:54;;;;;;;4.32;3.05;;;12.20;99.90;;;;;;4981273;28;20030;-70